createdAt,value
2022-08-20T00:02:14.090Z,21.20
2022-08-20T00:04:42.275Z,21.20
2022-08-20T00:07:11.945Z,21.20
2022-08-20T00:09:41.590Z,21.10
2022-08-20T00:12:11.650Z,21.10
2022-08-20T00:14:40.041Z,21.10
2022-08-20T00:17:11.914Z,21.00
2022-08-20T00:19:49.881Z,21.00
2022-08-20T00:22:23.022Z,20.90
2022-08-20T00:24:51.098Z,20.90
2022-08-20T00:27:19.171Z,20.80
2022-08-20T00:29:47.829Z,20.80
2022-08-20T00:32:15.931Z,20.70
2022-08-20T00:34:44.008Z,20.70
2022-08-20T00:37:12.175Z,20.70
2022-08-20T00:39:41.925Z,20.70
2022-08-20T00:42:10.243Z,20.70
2022-08-20T00:44:39.132Z,20.60
2022-08-20T00:47:09.196Z,20.60
2022-08-20T00:49:37.375Z,20.60
2022-08-20T00:52:10.499Z,20.50
2022-08-20T00:54:44.549Z,20.50
2022-08-20T00:57:18.250Z,20.50
2022-08-20T00:59:46.440Z,20.50
2022-08-20T01:02:17.556Z,20.40
2022-08-20T01:04:47.902Z,20.40
2022-08-20T01:07:16.301Z,20.40
2022-08-20T01:09:57.931Z,20.40
2022-08-20T01:12:29.235Z,20.40
2022-08-20T01:14:59.413Z,20.40
2022-08-20T01:17:32.435Z,20.30
2022-08-20T01:20:08.522Z,20.40
2022-08-20T01:22:59.217Z,20.30
2022-08-20T01:25:39.889Z,20.30
2022-08-20T01:28:08.690Z,20.30
2022-08-20T01:30:38.128Z,20.30
2022-08-20T01:33:06.824Z,20.40
2022-08-20T01:35:38.103Z,20.30
2022-08-20T01:38:06.833Z,20.40
2022-08-20T01:40:52.850Z,20.40
2022-08-20T01:43:21.422Z,20.40
2022-08-20T01:45:52.839Z,20.40
2022-08-20T01:48:21.897Z,20.30
2022-08-20T01:50:59.652Z,20.30
2022-08-20T01:53:33.513Z,20.40
2022-08-20T01:56:05.125Z,20.40
2022-08-20T01:58:34.896Z,20.40
2022-08-20T02:01:03.018Z,20.40
2022-08-20T02:03:36.568Z,20.40
2022-08-20T02:06:06.947Z,20.30
2022-08-20T02:08:35.075Z,20.30
2022-08-20T02:11:04.626Z,20.30
2022-08-20T02:13:32.829Z,20.30
2022-08-20T02:16:00.981Z,20.30
2022-08-20T02:18:29.041Z,20.30
2022-08-20T02:20:57.160Z,20.30
2022-08-20T02:23:25.217Z,20.30
2022-08-20T02:25:53.478Z,20.30
2022-08-20T02:28:23.266Z,20.30
2022-08-20T02:30:55.303Z,20.30
2022-08-20T02:33:24.831Z,20.30
2022-08-20T02:35:56.896Z,20.30
2022-08-20T02:38:25.488Z,20.30
2022-08-20T02:40:53.833Z,20.30
2022-08-20T02:43:23.242Z,20.30
2022-08-20T02:45:51.562Z,20.30
2022-08-20T02:48:23.200Z,20.30
2022-08-20T02:50:57.032Z,20.20
2022-08-20T02:53:25.759Z,20.20
2022-08-20T02:55:53.869Z,20.20
2022-08-20T02:58:24.215Z,20.20
2022-08-20T03:00:52.403Z,20.20
2022-08-20T03:03:22.659Z,20.20
2022-08-20T03:05:54.024Z,20.20
2022-08-20T03:08:23.651Z,20.20
2022-08-20T03:10:52.840Z,20.20
2022-08-20T03:13:21.909Z,20.20
2022-08-20T03:15:58.641Z,20.20
2022-08-20T03:18:32.145Z,20.20
2022-08-20T03:21:00.316Z,20.20
2022-08-20T03:23:28.649Z,20.10
2022-08-20T03:25:58.241Z,20.10
2022-08-20T03:28:26.812Z,20.10
2022-08-20T03:30:57.921Z,20.10
2022-08-20T03:33:26.126Z,20.10
2022-08-20T03:35:54.889Z,20.20
2022-08-20T03:38:32.270Z,20.20
2022-08-20T03:41:02.915Z,20.10
2022-08-20T03:43:31.527Z,20.10
2022-08-20T03:46:01.079Z,20.10
2022-08-20T03:48:29.481Z,20.10
2022-08-20T03:51:00.755Z,20.10
2022-08-20T03:53:31.497Z,20.10
2022-08-20T03:56:04.328Z,20.10
2022-08-20T03:58:36.429Z,20.10
2022-08-20T04:01:07.655Z,20.10
2022-08-20T04:03:58.615Z,20.00
2022-08-20T04:06:29.218Z,20.00
2022-08-20T04:08:57.690Z,20.00
2022-08-20T04:11:25.820Z,20.00
2022-08-20T04:13:54.019Z,20.00
2022-08-20T04:16:23.913Z,20.00
2022-08-20T04:18:58.632Z,20.00
2022-08-20T04:21:32.723Z,20.00
2022-08-20T04:24:02.326Z,20.00
2022-08-20T04:26:31.138Z,19.90
2022-08-20T04:28:59.728Z,20.00
2022-08-20T04:31:33.127Z,19.90
2022-08-20T04:34:02.252Z,19.90
2022-08-20T04:36:30.683Z,19.90
2022-08-20T04:38:58.828Z,19.90
2022-08-20T04:41:26.919Z,19.90
2022-08-20T04:43:56.807Z,20.00
2022-08-20T04:46:28.991Z,19.90
2022-08-20T04:48:57.967Z,19.90
2022-08-20T04:51:26.928Z,20.00
2022-08-20T04:53:56.398Z,20.00
2022-08-20T04:56:26.418Z,20.00
2022-08-20T04:58:55.897Z,20.00
2022-08-20T05:01:25.940Z,20.00
2022-08-20T05:03:57.247Z,20.00
2022-08-20T05:06:28.556Z,20.00
2022-08-20T05:08:58.271Z,20.00
2022-08-20T05:11:33.914Z,20.00
2022-08-20T05:14:07.914Z,20.00
2022-08-20T05:16:39.029Z,20.00
2022-08-20T05:19:10.889Z,20.00
2022-08-20T05:21:39.522Z,20.00
2022-08-20T05:24:08.162Z,20.00
2022-08-20T05:26:36.537Z,20.00
2022-08-20T05:29:06.771Z,20.00
2022-08-20T05:31:35.773Z,20.10
2022-08-20T05:34:09.595Z,20.10
2022-08-20T05:36:40.718Z,20.10
2022-08-20T05:39:09.330Z,20.10
2022-08-20T05:41:38.647Z,20.10
2022-08-20T05:44:10.693Z,20.20
2022-08-20T05:46:40.891Z,20.20
2022-08-20T05:49:09.331Z,20.20
2022-08-20T05:51:38.909Z,20.20
2022-08-20T05:54:07.801Z,20.30
2022-08-20T05:56:37.153Z,20.30
2022-08-20T05:59:07.400Z,20.30
2022-08-20T06:01:38.185Z,20.30
2022-08-20T06:04:24.807Z,20.40
2022-08-20T06:06:56.642Z,20.40
2022-08-20T06:09:30.837Z,20.40
2022-08-20T06:12:01.294Z,20.50
2022-08-20T06:14:29.700Z,20.50
2022-08-20T06:17:07.142Z,20.50
2022-08-20T06:19:35.589Z,20.50
2022-08-20T06:22:19.795Z,20.50
2022-08-20T06:24:55.160Z,20.50
2022-08-20T06:27:23.715Z,20.50
2022-08-20T06:29:52.392Z,20.50
2022-08-20T06:32:31.842Z,20.50
2022-08-20T06:35:01.952Z,20.50
2022-08-20T06:37:31.905Z,20.50
2022-08-20T06:40:05.130Z,20.50
2022-08-20T06:42:33.408Z,20.50
2022-08-20T06:45:04.895Z,20.50
2022-08-20T06:47:33.761Z,20.50
2022-08-20T06:50:01.938Z,20.60
2022-08-20T06:52:51.783Z,20.60
2022-08-20T06:55:19.779Z,20.60
2022-08-20T06:57:48.531Z,20.60
2022-08-20T07:00:19.674Z,20.60
2022-08-20T07:02:48.187Z,20.70
2022-08-20T07:05:17.061Z,20.70
2022-08-20T07:07:49.457Z,20.70
2022-08-20T07:10:19.003Z,20.70
2022-08-20T07:12:51.010Z,20.70
2022-08-20T07:15:21.307Z,20.70
2022-08-20T07:17:57.506Z,20.80
2022-08-20T07:20:29.577Z,20.80
2022-08-20T07:22:59.173Z,20.80
2022-08-20T07:25:27.441Z,20.80
2022-08-20T07:28:01.529Z,20.70
2022-08-20T07:30:56.420Z,20.80
2022-08-20T07:33:28.366Z,20.80
2022-08-20T07:35:57.058Z,20.80
2022-08-20T07:38:30.096Z,20.80
2022-08-20T07:41:00.282Z,20.80
2022-08-20T07:43:28.733Z,20.80
2022-08-20T07:46:00.837Z,20.80
2022-08-20T07:48:32.079Z,20.80
2022-08-20T07:51:03.647Z,20.80
2022-08-20T07:53:36.007Z,20.80
2022-08-20T07:56:06.449Z,20.80
2022-08-20T07:58:35.767Z,20.80
2022-08-20T08:01:05.118Z,20.80
2022-08-20T08:03:40.460Z,20.80
2022-08-20T08:06:29.214Z,20.80
2022-08-20T08:09:04.140Z,20.70
2022-08-20T08:11:34.128Z,20.70
2022-08-20T08:14:04.240Z,20.80
2022-08-20T08:16:32.534Z,20.80
2022-08-20T08:19:02.050Z,20.90
2022-08-20T08:21:31.817Z,20.90
2022-08-20T08:24:02.543Z,21.00
2022-08-20T08:26:30.832Z,21.10
2022-08-20T08:28:59.173Z,21.20
2022-08-20T08:31:27.517Z,21.30
2022-08-20T08:33:55.787Z,21.50
2022-08-20T08:36:27.081Z,21.60
2022-08-20T08:38:55.903Z,21.70
2022-08-20T08:41:29.552Z,21.80
2022-08-20T08:44:04.830Z,22.00
2022-08-20T08:46:36.834Z,22.10
2022-08-20T08:49:05.562Z,22.20
2022-08-20T08:51:38.295Z,22.30
2022-08-20T08:54:08.437Z,22.40
2022-08-20T08:56:38.019Z,22.60
2022-08-20T08:59:08.823Z,22.70
2022-08-20T09:01:54.211Z,22.80
2022-08-20T09:04:31.777Z,22.70
2022-08-20T09:07:02.719Z,22.80
2022-08-20T09:09:35.578Z,22.90
2022-08-20T09:12:08.288Z,23.00
2022-08-20T09:14:37.319Z,23.00
2022-08-20T09:17:06.465Z,23.00
2022-08-20T09:19:34.684Z,22.90
2022-08-20T09:22:08.829Z,23.00
2022-08-20T09:24:36.952Z,22.90
2022-08-20T09:27:07.264Z,22.90
2022-08-20T09:29:35.893Z,22.90
2022-08-20T09:32:09.274Z,22.90
2022-08-20T09:34:38.754Z,22.90
2022-08-20T09:37:07.352Z,22.90
2022-08-20T09:39:35.775Z,22.90
2022-08-20T09:42:13.101Z,22.90
2022-08-20T09:44:41.902Z,23.00
2022-08-20T09:47:10.524Z,23.10
2022-08-20T09:49:38.839Z,23.20
2022-08-20T09:52:09.481Z,23.30
2022-08-20T09:54:38.750Z,23.30
2022-08-20T09:57:14.430Z,23.30
2022-08-20T09:59:42.772Z,23.40
2022-08-20T10:02:10.919Z,23.40
2022-08-20T10:04:39.150Z,23.40
2022-08-20T10:07:09.960Z,23.40
2022-08-20T10:09:39.995Z,23.40
2022-08-20T10:12:09.077Z,23.40
2022-08-20T10:14:38.530Z,23.50
2022-08-20T10:17:06.625Z,23.50
2022-08-20T10:19:34.911Z,23.60
2022-08-20T10:22:03.071Z,23.70
2022-08-20T10:24:31.682Z,23.80
2022-08-20T10:27:01.396Z,23.90
2022-08-20T10:29:31.053Z,24.00
2022-08-20T10:32:12.005Z,24.00
2022-08-20T10:34:40.601Z,24.00
2022-08-20T10:37:09.503Z,24.00
2022-08-20T10:39:37.622Z,24.00
2022-08-20T10:42:05.998Z,24.10
2022-08-20T10:44:34.142Z,24.10
2022-08-20T10:47:19.701Z,24.20
2022-08-20T10:49:48.722Z,24.20
2022-08-20T10:52:17.254Z,24.20
2022-08-20T10:54:45.339Z,24.20
2022-08-20T10:57:17.212Z,24.30
2022-08-20T10:59:47.334Z,24.30
2022-08-20T11:02:17.292Z,24.30
2022-08-20T11:04:46.123Z,24.20
2022-08-20T11:07:16.744Z,24.30
2022-08-20T11:09:45.532Z,24.30
2022-08-20T11:12:13.850Z,24.30
2022-08-20T11:14:42.187Z,24.40
2022-08-20T11:17:10.881Z,24.40
2022-08-20T11:19:45.321Z,24.40
2022-08-20T11:22:13.740Z,24.50
2022-08-20T11:24:41.803Z,24.50
2022-08-20T11:27:25.629Z,24.50
2022-08-20T11:29:54.730Z,24.60
2022-08-20T11:32:23.481Z,24.50
2022-08-20T11:34:53.747Z,24.60
2022-08-20T11:37:24.795Z,24.60
2022-08-20T11:39:53.311Z,24.70
2022-08-20T11:42:21.488Z,24.70
2022-08-20T11:44:49.650Z,24.80
2022-08-20T11:47:25.247Z,24.80
2022-08-20T11:50:01.600Z,24.80
2022-08-20T11:52:30.277Z,24.70
2022-08-20T11:54:59.759Z,24.70
2022-08-20T11:57:29.939Z,24.60
2022-08-20T11:59:59.730Z,24.60
2022-08-20T12:02:28.552Z,24.60
2022-08-20T12:04:59.576Z,24.70
2022-08-20T12:07:27.679Z,24.70
2022-08-20T12:09:55.856Z,24.80
2022-08-20T12:12:25.065Z,24.90
2022-08-20T12:14:53.924Z,24.90
2022-08-20T12:17:26.744Z,25.00
2022-08-20T12:20:00.968Z,25.00
2022-08-20T12:22:29.204Z,24.90
2022-08-20T12:24:57.782Z,24.90
2022-08-20T12:27:27.752Z,24.90
2022-08-20T12:29:58.095Z,24.80
2022-08-20T12:32:29.183Z,24.90
2022-08-20T12:34:59.604Z,24.90
2022-08-20T12:37:29.857Z,25.00
2022-08-20T12:40:00.152Z,25.00
2022-08-20T12:42:30.498Z,25.00
2022-08-20T12:45:00.025Z,25.00
2022-08-20T12:47:30.221Z,25.00
2022-08-20T12:50:01.544Z,25.00
2022-08-20T12:52:31.509Z,25.00
2022-08-20T12:55:00.518Z,25.00
2022-08-20T12:57:30.680Z,24.90
2022-08-20T13:00:00.944Z,24.90
2022-08-20T13:02:31.806Z,25.00
2022-08-20T13:05:04.822Z,25.00
2022-08-20T13:07:33.885Z,25.00
2022-08-20T13:10:02.139Z,25.00
2022-08-20T13:12:30.269Z,25.00
2022-08-20T13:14:58.402Z,25.00
2022-08-20T13:17:38.286Z,25.10
2022-08-20T13:20:12.742Z,25.10
2022-08-20T13:22:42.838Z,25.20
2022-08-20T13:25:12.437Z,25.20
2022-08-20T13:27:42.668Z,25.30
2022-08-20T13:30:14.959Z,25.30
2022-08-20T13:32:43.153Z,25.40
2022-08-20T13:35:13.955Z,25.40
2022-08-20T13:37:43.075Z,25.50
2022-08-20T13:40:12.517Z,25.50
2022-08-20T13:42:40.704Z,25.50
2022-08-20T13:45:10.495Z,25.50
2022-08-20T13:47:40.162Z,25.30
2022-08-20T13:50:11.537Z,25.30
2022-08-20T13:52:42.740Z,25.20
2022-08-20T13:55:14.000Z,25.10
2022-08-20T13:57:44.161Z,25.10
2022-08-20T14:00:15.848Z,25.20
2022-08-20T14:02:44.401Z,25.30
2022-08-20T14:05:14.297Z,25.30
2022-08-20T14:07:50.314Z,25.30
2022-08-20T14:10:22.307Z,25.40
2022-08-20T14:12:50.669Z,25.40
2022-08-20T14:15:19.572Z,25.40
2022-08-20T14:17:52.299Z,25.50
2022-08-20T14:20:22.752Z,25.50
2022-08-20T14:22:52.364Z,25.50
2022-08-20T14:25:22.183Z,25.50
2022-08-20T14:27:51.341Z,25.50
2022-08-20T14:30:22.728Z,25.40
2022-08-20T14:32:51.491Z,25.30
2022-08-20T14:35:19.857Z,25.30
2022-08-20T14:37:49.877Z,25.20
2022-08-20T14:40:20.532Z,25.10
2022-08-20T14:42:51.417Z,25.10
2022-08-20T14:45:21.826Z,25.10
2022-08-20T14:47:57.205Z,25.10
2022-08-20T14:50:27.622Z,25.20
2022-08-20T14:52:57.066Z,25.20
2022-08-20T14:55:29.513Z,25.30
2022-08-20T14:57:57.763Z,25.30
2022-08-20T15:00:28.123Z,25.40
2022-08-20T15:02:57.923Z,25.40
2022-08-20T15:05:26.237Z,25.50
2022-08-20T15:07:55.225Z,25.50
2022-08-20T15:10:25.766Z,25.50
2022-08-20T15:12:55.872Z,25.50
2022-08-20T15:15:25.368Z,25.50
2022-08-20T15:17:56.741Z,25.50
2022-08-20T15:20:28.762Z,25.50
2022-08-20T15:22:57.095Z,25.50
2022-08-20T15:25:27.537Z,25.40
2022-08-20T15:28:06.596Z,25.40
2022-08-20T15:30:35.007Z,25.40
2022-08-20T15:33:03.407Z,25.40
2022-08-20T15:35:31.797Z,25.40
2022-08-20T15:38:00.785Z,25.40
2022-08-20T15:40:31.304Z,25.40
2022-08-20T15:43:00.661Z,25.40
2022-08-20T15:45:30.918Z,25.40
2022-08-20T15:48:03.869Z,25.40
2022-08-20T15:50:43.651Z,25.40
2022-08-20T15:53:17.502Z,25.40
2022-08-20T15:55:54.933Z,25.40
2022-08-20T15:58:28.393Z,25.40
2022-08-20T16:01:24.935Z,25.40
2022-08-20T16:04:26.767Z,25.40
2022-08-20T16:07:01.501Z,25.40
2022-08-20T16:09:41.205Z,25.40
2022-08-20T16:12:17.320Z,25.40
2022-08-20T16:14:48.550Z,25.30
2022-08-20T16:17:25.373Z,25.30
2022-08-20T16:20:03.821Z,25.30
2022-08-20T16:22:32.841Z,25.30
2022-08-20T16:25:01.242Z,25.30
2022-08-20T16:27:36.985Z,25.30
2022-08-20T16:30:08.560Z,25.30
2022-08-20T16:32:41.999Z,25.30
2022-08-20T16:35:30.404Z,25.40
2022-08-20T16:38:11.567Z,25.50
2022-08-20T16:40:49.408Z,25.50
2022-08-20T16:43:23.915Z,25.50
2022-08-20T16:45:55.353Z,25.50
2022-08-20T16:48:34.875Z,25.50
2022-08-20T16:51:06.337Z,25.50
2022-08-20T16:53:35.460Z,25.60
2022-08-20T16:56:04.123Z,25.70
2022-08-20T16:58:32.712Z,25.80
2022-08-20T17:01:13.406Z,26.00
2022-08-20T17:03:50.557Z,26.10
2022-08-20T17:06:33.044Z,26.40
2022-08-20T17:09:08.658Z,26.60
2022-08-20T17:11:38.795Z,26.90
2022-08-20T17:14:11.295Z,27.10
2022-08-20T17:16:43.450Z,27.60
2022-08-20T17:19:18.956Z,28.00
2022-08-20T17:21:50.684Z,28.50
2022-08-20T17:24:26.000Z,29.20
2022-08-20T17:27:00.731Z,30.00
2022-08-20T17:29:31.565Z,29.90
2022-08-20T17:32:01.822Z,29.50
2022-08-20T17:34:34.091Z,29.70
2022-08-20T17:37:08.692Z,30.30
2022-08-20T17:39:47.226Z,31.10
2022-08-20T17:42:19.077Z,31.60
2022-08-20T17:45:04.512Z,31.60
2022-08-20T17:47:37.201Z,30.70
2022-08-20T17:50:13.025Z,29.80
2022-08-20T17:52:47.653Z,29.30
2022-08-20T17:55:15.753Z,29.00
2022-08-20T17:57:46.528Z,28.40
2022-08-20T18:00:23.222Z,27.80
2022-08-20T18:02:54.219Z,27.30
2022-08-20T18:05:24.017Z,26.80
2022-08-20T18:08:08.491Z,26.40
2022-08-20T18:10:43.364Z,26.10
2022-08-20T18:13:19.353Z,25.80
2022-08-20T18:15:54.770Z,25.60
2022-08-20T18:18:36.525Z,25.30
2022-08-20T18:22:02.776Z,25.10
2022-08-20T18:24:39.641Z,24.90
2022-08-20T18:27:12.954Z,24.60
2022-08-20T18:29:45.018Z,24.50
2022-08-20T18:32:31.850Z,24.30
2022-08-20T18:35:13.732Z,24.20
2022-08-20T18:37:43.368Z,24.00
2022-08-20T18:40:19.588Z,23.90
2022-08-20T18:42:47.920Z,23.80
2022-08-20T18:45:29.361Z,23.60
2022-08-20T18:47:57.515Z,23.50
2022-08-20T18:50:31.546Z,23.40
2022-08-20T18:53:11.802Z,23.30
2022-08-20T18:55:43.559Z,23.20
2022-08-20T18:58:13.572Z,23.10
2022-08-20T19:00:47.877Z,23.00
2022-08-20T19:03:21.837Z,22.90
2022-08-20T19:06:18.065Z,22.80
2022-08-20T19:09:06.675Z,22.80
2022-08-20T19:12:01.750Z,22.70
2022-08-20T19:14:55.258Z,22.60
2022-08-20T19:17:32.546Z,22.50
2022-08-20T19:20:03.548Z,22.40
2022-08-20T19:22:35.200Z,22.30
2022-08-20T19:25:04.935Z,22.20
2022-08-20T19:27:33.285Z,22.20
2022-08-20T19:30:01.650Z,22.10
2022-08-20T19:32:32.298Z,22.10
2022-08-20T19:35:02.034Z,22.00
2022-08-20T19:37:39.635Z,21.90
2022-08-20T19:40:28.332Z,21.80
2022-08-20T19:42:59.122Z,21.70
2022-08-20T19:45:31.729Z,21.70
2022-08-20T19:48:27.591Z,21.60
2022-08-20T19:51:16.437Z,21.60
2022-08-20T19:53:48.356Z,21.50
2022-08-20T19:56:21.271Z,21.40
2022-08-20T19:58:59.956Z,21.40
2022-08-20T20:01:28.501Z,21.30
2022-08-20T20:03:59.811Z,21.30
2022-08-20T20:06:30.020Z,21.20
2022-08-20T20:09:01.676Z,21.10
2022-08-20T20:11:35.745Z,21.10
2022-08-20T20:14:07.634Z,21.00
2022-08-20T20:16:37.038Z,21.00
2022-08-20T20:19:25.879Z,20.90
2022-08-20T20:22:13.376Z,20.80
2022-08-20T20:24:57.880Z,20.80
2022-08-20T20:27:28.817Z,20.70
2022-08-20T20:30:00.699Z,20.70
2022-08-20T20:32:30.381Z,20.60
2022-08-20T20:35:01.332Z,20.50
2022-08-20T20:37:48.927Z,20.50
2022-08-20T20:40:25.860Z,20.40
2022-08-20T20:43:11.682Z,20.40
2022-08-20T20:45:42.948Z,20.30
2022-08-20T20:48:18.500Z,20.30
2022-08-20T20:50:48.329Z,20.20
2022-08-20T20:53:32.322Z,20.20
2022-08-20T20:56:29.228Z,20.10
2022-08-20T20:59:03.820Z,20.10
2022-08-20T21:01:47.924Z,20.00
2022-08-20T21:04:21.722Z,20.00
2022-08-20T21:06:51.646Z,19.90
2022-08-20T21:09:20.093Z,19.80
2022-08-20T21:11:48.274Z,19.80
2022-08-20T21:14:18.269Z,19.80
2022-08-20T21:16:46.617Z,19.70
2022-08-20T21:19:15.808Z,19.70
2022-08-20T21:21:44.304Z,19.70
2022-08-20T21:24:12.767Z,19.60
2022-08-20T21:26:41.603Z,19.50
2022-08-20T21:29:12.350Z,19.50
2022-08-20T21:31:45.228Z,19.50
2022-08-20T21:34:15.909Z,19.40
2022-08-20T21:36:44.085Z,19.40
2022-08-20T21:39:12.530Z,19.30
2022-08-20T21:41:42.842Z,19.30
2022-08-20T21:44:15.474Z,19.30
2022-08-20T21:46:44.928Z,19.20
2022-08-20T21:49:13.288Z,19.20
2022-08-20T21:51:41.419Z,19.20
2022-08-20T21:54:09.628Z,19.20
2022-08-20T21:56:38.821Z,19.10
2022-08-20T21:59:08.808Z,19.10
2022-08-20T22:01:37.516Z,19.10
2022-08-20T22:04:07.589Z,19.00
2022-08-20T22:06:35.697Z,19.00
2022-08-20T22:09:03.863Z,19.00
2022-08-20T22:11:33.327Z,18.90
2022-08-20T22:14:01.882Z,18.90
2022-08-20T22:16:30.236Z,18.80
2022-08-20T22:18:58.327Z,18.80
2022-08-20T22:21:30.371Z,18.80
2022-08-20T22:24:00.993Z,18.70
2022-08-20T22:26:29.568Z,18.70
2022-08-20T22:28:57.664Z,18.70
2022-08-20T22:31:29.788Z,18.60
2022-08-20T22:33:58.789Z,18.60
2022-08-20T22:36:30.357Z,18.60
2022-08-20T22:38:58.687Z,18.50
2022-08-20T22:41:27.181Z,18.50
2022-08-20T22:43:55.783Z,18.50
2022-08-20T22:46:27.074Z,18.40
2022-08-20T22:48:56.060Z,18.30
2022-08-20T22:51:28.111Z,18.40
2022-08-20T22:53:57.589Z,18.30
2022-08-20T22:56:25.839Z,18.30
2022-08-20T22:58:54.066Z,18.30
2022-08-20T23:01:22.496Z,18.20
2022-08-20T23:03:50.649Z,18.20
2022-08-20T23:06:19.338Z,18.10
2022-08-20T23:08:47.423Z,18.10
2022-08-20T23:11:17.601Z,18.10
2022-08-20T23:13:45.812Z,18.10
2022-08-20T23:16:13.933Z,18.00
2022-08-20T23:18:42.228Z,18.00
2022-08-20T23:21:10.319Z,17.90
2022-08-20T23:23:38.455Z,17.90
2022-08-20T23:26:07.827Z,17.90
2022-08-20T23:28:37.399Z,17.90
2022-08-20T23:31:05.599Z,17.80
2022-08-20T23:33:33.727Z,17.80
2022-08-20T23:36:05.851Z,17.80
2022-08-20T23:38:34.275Z,17.80
2022-08-20T23:41:02.376Z,17.80
2022-08-20T23:43:30.625Z,17.80
2022-08-20T23:46:03.330Z,17.70
2022-08-20T23:48:31.486Z,17.70
2022-08-20T23:50:59.639Z,17.70
2022-08-20T23:53:27.740Z,17.70
2022-08-20T23:55:55.826Z,17.60
2022-08-20T23:58:24.052Z,17.60
